Flight Track Log - Related Links

Times and Time Zones

All times are in EDT time to prevent confusion due to time zone crossing. See the F-HPJG flight status page for this flight to view local times or setup timezone preferences in your user account.

Time Position Orientation Groundspeed Altitude Reporting Facility
EDT Latitude Longitude Course Direction KTS MPH feet Rate Location/Type
Tue 05:34:58 PM 48.9967 2.5724 265° West 157 181 300  Level FlightAware ADS-B
Tue 05:35:06 PM 48.9962 2.5634 265° West 169 194 400 1,440 Climbing FlightAware ADS-B
Tue 05:35:23 PM 48.9950 2.5439 265° West 164 189 900 1,500 Climbing FlightAware ADS-B
Tue 05:35:38 PM 48.9941 2.5263 266° West 165 190 1,200 1,313 Climbing FlightAware ADS-B
Tue 05:35:55 PM 48.9931 2.5066 266° West 168 193 1,600 1,421 Climbing FlightAware ADS-B
Tue 05:36:16 PM 48.9916 2.4816 265° West 170 196 2,100 1,579 Climbing FlightAware ADS-B
Tue 05:36:33 PM 48.9903 2.4611 264° West 172 198 2,600 1,833 Climbing FlightAware ADS-B
Tue 05:36:52 PM 48.9890 2.4381 265° West 173 199 3,200 1,538 Climbing FlightAware ADS-B
Tue 05:37:12 PM 48.9875 2.4132 265° West 182 209 3,600 1,000 Climbing FlightAware ADS-B
Tue 05:37:28 PM 48.9865 2.3921 266° West 209 241 3,800 750 Climbing FlightAware ADS-B
Tue 05:37:44 PM 48.9852 2.3674 265° West 233 268 4,000 750 Climbing FlightAware ADS-B
Tue 05:38:00 PM 48.9836 2.3395 265° West 259 298 4,200 900 Climbing FlightAware ADS-B
Tue 05:38:04 PM 48.9829 2.3310 263° West 266 306 4,300 1,333 Climbing FlightAware ADS-B
Tue 05:38:09 PM 48.9816 2.3222 257° West 268 308 4,400 2,250 Climbing FlightAware ADS-B
Tue 05:38:12 PM 48.9803 2.3165 251° West 268 308 4,600 3,000 Climbing FlightAware ADS-B
Tue 05:38:17 PM 48.9780 2.3089 245° Southwest 266 306 4,800 2,667 Climbing FlightAware ADS-B
Tue 05:38:21 PM 48.9750 2.3019 237° Southwest 265 305 5,000 3,750 Climbing FlightAware ADS-B
Tue 05:38:25 PM 48.9716 2.2961 228° Southwest 264 304 5,300 3,333 Climbing FlightAware ADS-B
Tue 05:38:30 PM 48.9672 2.2904 221° Southwest 262 302 5,500 2,667 Climbing FlightAware ADS-B
Tue 05:38:34 PM 48.9633 2.2861 216° Southwest 261 300 5,700 3,429 Climbing FlightAware ADS-B
Tue 05:38:37 PM 48.9602 2.2833 211° Southwest 261 300 5,900 3,000 Climbing FlightAware ADS-B
Tue 05:38:42 PM 48.9546 2.2791 206° Southwest 263 303 6,100 2,500 Climbing FlightAware ADS-B
Tue 05:38:49 PM 48.9467 2.2757 196° South 265 305 6,400 2,727 Climbing FlightAware ADS-B
Tue 05:38:53 PM 48.9416 2.2746 188° South 266 306 6,600 2,700 Climbing FlightAware ADS-B
Tue 05:39:09 PM 48.9218 2.2717 185° South 269 310 7,300 2,444 Climbing FlightAware ADS-B
Tue 05:39:20 PM 48.9089 2.2699 185° South 276 318 7,700 2,308 Climbing FlightAware ADS-B
Tue 05:39:35 PM 48.8893 2.2680 184° South 278 320 8,300 2,600 Climbing FlightAware ADS-B
Tue 05:39:50 PM 48.8694 2.2663 183° South 281 323 9,000 2,710 Climbing FlightAware ADS-B
Tue 05:40:06 PM 48.8484 2.2645 183° South 285 328 9,700 2,372 Climbing FlightAware ADS-B
Tue 05:40:33 PM 48.8138 2.2615 183° South 294 338 10,700 1,655 Climbing FlightAware ADS-B
Tue 05:41:04 PM 48.7686 2.2580 183° South 328 377 11,300 1,967 Climbing FlightAware ADS-B
Tue 05:41:34 PM 48.7232 2.2535 184° South 330 380 12,700 2,615 Climbing FlightAware ADS-B
Tue 05:41:43 PM 48.7096 2.2525 183° South 335 386 13,000 1,385 Climbing FlightAware ADS-B
Tue 05:42:13 PM 48.6606 2.2611 173° South 364 419 13,600 1,279 Climbing FlightAware ADS-B
Tue 05:42:44 PM 48.6083 2.2742 171° South 386 444 14,300 1,869 Climbing FlightAware ADS-B
Tue 05:43:14 PM 48.5542 2.2865 171° South 395 455 15,500 2,400 Climbing FlightAware ADS-B
Tue 05:43:44 PM 48.4989 2.2985 172° South 402 463 16,700 2,300 Climbing FlightAware ADS-B
Tue 05:44:14 PM 48.4434 2.3107 172° South 409 471 17,800 2,200 Climbing FlightAware ADS-B
Tue 05:44:44 PM 48.3867 2.3229 172° South 416 479 18,900 1,839 Climbing FlightAware ADS-B
Tue 05:45:16 PM 48.3251 2.3363 172° South 428 493 19,700 1,684 Climbing FlightAware ADS-B
Tue 05:45:41 PM 48.2752 2.3481 171° South 438 504 20,500 1,662 Climbing FlightAware ADS-B
Tue 05:46:21 PM 48.1966 2.3781 166° South 451 519 21,500 1,714 Climbing FlightAware ADS-B
Tue 05:46:58 PM 48.1215 2.4059 166° South 455 524 22,700 2,583 Climbing FlightAware ADS-B
Tue 05:47:33 PM 48.0515 2.4320 166° South 439 505 24,600 2,282 Climbing FlightAware ADS-B
Tue 05:48:09 PM 47.9799 2.4585 166° South 450 518 25,400 1,412 Climbing FlightAware ADS-B
Tue 05:48:41 PM 47.9143 2.4831 166° South 457 526 26,200 1,500 Climbing FlightAware ADS-B
Tue 05:49:13 PM 47.8487 2.5076 166° South 460 529 27,000 1,273 Climbing FlightAware ADS-B
Tue 05:49:47 PM 47.7771 2.5343 166° South 471 542 27,600 1,200 Climbing FlightAware ADS-B
Tue 05:50:18 PM 47.7124 2.5582 166° South 475 547 28,300 1,475 Climbing FlightAware ADS-B
Tue 05:50:48 PM 47.6477 2.5821 166° South 476 548 29,100 1,548 Climbing FlightAware ADS-B
Tue 05:51:20 PM 47.5792 2.6075 166° South 479 551 29,900 1,091 Climbing FlightAware ADS-B
Tue 05:52:27 PM 47.4410 2.6580 166° South 490 564 30,900 897 Climbing FlightAware ADS-B
Tue 05:53:07 PM 47.3500 2.6910 166° South 498 573 31,500 918 Climbing FlightAware ADS-B
Tue 05:53:52 PM 47.2460 2.7290 166° South 507 583 32,200 918 Climbing FlightAware ADS-B
Tue 05:54:32 PM 47.1570 2.7620 166° South 512 589 32,800 918 Climbing FlightAware ADS-B
Tue 05:55:17 PM 47.0510 2.8000 166° South 519 597 33,500 1,129 Climbing FlightAware ADS-B
Tue 05:55:57 PM 46.9570 2.8340 166° South 516 594 34,400 1,125 Climbing FlightAware ADS-B
Tue 05:56:37 PM 46.8650 2.8670 166° South 510 587 35,000 424 Climbing FlightAware ADS-B
Tue 05:57:22 PM 46.7640 2.9030 166° South 510 587 35,000  Level FlightAware ADS-B
Tue 05:58:02 PM 46.6720 2.9350 167° South 510 587 35,000 212 Level FlightAware ADS-B
Tue 05:58:47 PM 46.5670 2.9730 166° South 514 592 35,300 494 Climbing FlightAware ADS-B
Tue 05:59:27 PM 46.4740 3.0060 166° South 518 596 35,700 675 Climbing FlightAware ADS-B
Tue 06:00:07 PM 46.3810 3.0390 166° South 519 597 36,200 776 Climbing FlightAware ADS-B
Tue 06:00:52 PM 46.2770 3.0750 167° South 520 598 36,800 565 Climbing FlightAware ADS-B
Tue 06:01:32 PM 46.1860 3.1070 166° South 518 596 37,000 141 Climbing FlightAware ADS-B
Tue 06:02:17 PM 46.0760 3.1450 167° South 516 594 37,000  Level FlightAware ADS-B
Tue 06:02:57 PM 45.9840 3.1770 166° South 515 593 37,000  Level FlightAware ADS-B
Tue 06:03:37 PM 45.8920 3.2090 166° South 514 592 37,000  Level FlightAware ADS-B
Tue 06:04:22 PM 45.7900 3.2440 167° South 515 593 37,000  Level FlightAware ADS-B
Tue 06:05:02 PM 45.6970 3.2760 166° South 514 592 37,000  Level FlightAware ADS-B
Tue 06:05:47 PM 45.5930 3.3110 167° South 515 593 37,000  Level FlightAware ADS-B
Tue 06:06:22 PM 45.5130 3.3390 166° South 517 595 37,000  Level FlightAware ADS-B
Tue 06:07:07 PM 45.4060 3.3750 167° South 519 597 37,000  Level FlightAware ADS-B
Tue 06:07:52 PM 45.3020 3.4100 167° South 518 596 37,000  Level FlightAware ADS-B
Tue 06:08:32 PM 45.2080 3.4420 167° South 519 597 37,000  Level FlightAware ADS-B
Tue 06:09:17 PM 45.1030 3.4770 167° South 521 600 37,000  Level FlightAware ADS-B
Tue 06:09:57 PM 45.0080 3.5090 167° South 521 600 37,000  Level FlightAware ADS-B
Tue 06:10:37 PM 44.9140 3.5400 167° South 522 601 37,000  Level FlightAware ADS-B
Tue 06:11:22 PM 44.8070 3.5760 167° South 523 602 37,000  Level FlightAware ADS-B
Tue 06:12:02 PM 44.7170 3.6050 167° South 523 602 37,000  Level FlightAware ADS-B
Tue 06:12:42 PM 44.6220 3.6370 167° South 524 603 37,000  Level FlightAware ADS-B
Tue 06:13:27 PM 44.5130 3.6730 167° South 527 606 37,000  Level FlightAware ADS-B
Tue 06:14:07 PM 44.4180 3.7140 163° South 537 618 37,000  Level FlightAware ADS-B
Tue 06:14:52 PM 44.3200 3.7750 156° South 535 616 37,000  Level FlightAware ADS-B
Tue 06:15:32 PM 44.2320 3.8280 157° South 537 618 37,000  Level FlightAware ADS-B
Tue 06:16:12 PM 44.1390 3.8830 157° South 539 620 37,000  Level FlightAware ADS-B
Tue 06:16:57 PM 44.0310 3.9480 157° South 540 621 37,000  Level FlightAware ADS-B
Tue 06:17:37 PM 43.9410 4.0020 157° South 538 619 37,000  Level FlightAware ADS-B
Tue 06:18:22 PM 43.8400 4.0620 157° South 538 619 37,000  Level FlightAware ADS-B
Tue 06:19:02 PM 43.7480 4.1160 157° South 541 623 37,000  Level FlightAware ADS-B
Tue 06:19:47 PM 43.6410 4.1790 157° South 543 625 37,000  Level FlightAware ADS-B
Tue 06:20:27 PM 43.5480 4.2340 157° South 545 627 37,000  Level FlightAware ADS-B
Tue 06:21:07 PM 43.4610 4.2850 157° South 546 628 37,000  Level FlightAware ADS-B
Tue 06:21:52 PM 43.3550 4.3460 157° South 547 629 37,000  Level FlightAware ADS-B
Tue 06:22:32 PM 43.2620 4.4000 157° South 546 628 37,000  Level FlightAware ADS-B
Tue 06:23:12 PM 43.1650 4.4430 162° South 541 623 37,000  Level FlightAware ADS-B
Tue 06:23:57 PM 43.0720 4.4820 163° South 541 623 37,000  Level FlightAware ADS-B
Tue 06:24:37 PM 42.9640 4.5280 163° South 542 624 37,000  Level FlightAware ADS-B
Tue 06:25:22 PM 42.8550 4.5730 163° South 543 625 37,000  Level FlightAware ADS-B
Tue 06:26:02 PM 42.7580 4.6140 163° South 544 626 37,000  Level FlightAware ADS-B
Tue 06:26:47 PM 42.6470 4.6600 163° South 545 627 37,000  Level FlightAware ADS-B
Tue 06:27:27 PM 42.5570 4.6970 163° South 544 626 37,000  Level FlightAware ADS-B
Tue 06:28:17 PM 42.4350 4.7480 163° South 543 625 37,000  Level FlightAware ADS-B
Tue 06:29:07 PM 42.3390 4.7870 163° South 543 625 37,000  Level FlightAware ADS-B
Tue 06:29:47 PM 42.2220 4.8350 163° South 548 631 37,000  Level FlightAware ADS-B
Tue 06:30:22 PM 42.1460 4.8660 163° South 549 632 37,000  Level FlightAware ADS-B
Tue 06:31:12 PM 42.0190 4.9180 163° South 552 635 37,000  Level FlightAware ADS-B
Tue 06:31:52 PM 41.9110 4.9620 163° South 554 638 37,000  Level FlightAware ADS-B
Tue 06:32:32 PM 41.8120 5.0020 163° South 555 639 37,000  Level FlightAware ADS-B
Tue 06:33:12 PM 41.7140 5.0410 163° South 558 642 37,000  Level FlightAware ADS-B
Tue 06:33:57 PM 41.6090 5.0830 163° South 559 643 37,000  Level FlightAware ADS-B
Tue 06:34:42 PM 41.4880 5.1320 163° South 559 643 37,000  Level FlightAware ADS-B
Tue 06:35:22 PM 41.3900 5.1710 163° South 562 647 37,000  Level FlightAware ADS-B
Tue 06:36:07 PM 41.2790 5.2150 163° South 565 650 37,000  Level FlightAware ADS-B
Tue 06:36:47 PM 41.1870 5.2510 164° South 568 654 37,000  Level FlightAware ADS-B
Tue 06:37:42 PM 41.0370 5.3110 163° South 566 651 37,000  Level FlightAware ADS-B
Tue 06:38:32 PM 40.9330 5.3520 163° South 563 648 37,000  Level FlightAware ADS-B
Tue 06:39:22 PM 40.7930 5.4070 163° South 560 644 37,000  Level FlightAware ADS-B
Tue 06:40:02 PM 40.6920 5.4460 164° South 558 642 37,000  Level FlightAware ADS-B
Tue 06:40:47 PM 40.5920 5.4860 163° South 558 642 37,000  Level FlightAware ADS-B
Tue 06:41:27 PM 40.5080 5.5200 163° South 558 642 37,000  Level FlightAware ADS-B
Tue 06:41:57 PM 40.4450 5.5450 163° South 558 642 37,000  Level FlightAware ADS-B
Tue 06:42:37 PM 40.3610 5.5790 163° South 558 642 37,000  Level FlightAware ADS-B
Tue 06:43:17 PM 40.2770 5.6130 163° South 558 642 37,000  Level FlightAware ADS-B
Tue 06:44:02 PM 40.1020 5.6740 165° South 552 635 37,000  Level FlightAware ADS-B
Tue 06:44:42 PM 40.0020 5.7120 164° South 552 635 37,000  Level FlightAware ADS-B
Tue 06:45:27 PM 39.8910 5.7540 164° South 553 636 37,000  Level FlightAware ADS-B
Tue 06:46:07 PM 39.7930 5.7910 164° South 553 636 37,000  Level FlightAware ADS-B
Tue 06:46:47 PM 39.6910 5.8300 164° South 555 639 37,000  Level FlightAware ADS-B
Tue 06:47:32 PM 39.5820 5.8710 164° South 554 638 37,000  Level FlightAware ADS-B
Tue 06:48:12 PM 39.4780 5.9100 164° South 554 638 37,000  Level FlightAware ADS-B
Tue 06:48:52 PM 39.3800 5.9470 164° South 554 638 37,000  Level FlightAware ADS-B
Tue 06:49:37 PM 39.2710 5.9870 164° South 553 636 37,000  Level FlightAware ADS-B
Tue 06:50:17 PM 39.1670 6.0260 164° South 552 635 37,000  Level FlightAware ADS-B
Tue 06:51:02 PM 39.0570 6.0670 164° South 550 633 37,000  Level FlightAware ADS-B
Tue 06:51:42 PM 38.9550 6.0970 167° South 541 623 37,000  Level FlightAware ADS-B
Tue 06:52:22 PM 38.8560 6.1160 171° South 549 632 37,000  Level FlightAware ADS-B
Tue 06:53:07 PM 38.7410 6.1390 171° South 549 632 37,000  Level FlightAware ADS-B
Tue 06:53:47 PM 38.6420 6.1590 171° South 550 633 37,000  Level FlightAware ADS-B
Tue 06:54:27 PM 38.5540 6.1770 171° South 550 633 37,000  Level FlightAware ADS-B
Tue 06:55:07 PM 38.4690 6.1940 171° South 550 633 37,000  Level FlightAware ADS-B
Tue 06:55:47 PM 38.3830 6.2110 171° South 550 633 37,000  Level FlightAware ADS-B
Tue 06:56:37 PM 38.2130 6.2430 172° South 539 620 37,000  Level FlightAware ADS-B
Tue 06:57:17 PM 38.1260 6.2610 171° South 540 621 37,000  Level FlightAware ADS-B
Tue 06:57:57 PM 38.0420 6.2770 171° South 540 621 37,000  Level FlightAware ADS-B
Tue 06:58:37 PM 37.9580 6.2940 171° South 540 621 37,000  Level FlightAware ADS-B
Tue 06:59:17 PM 37.8740 6.3110 171° South 540 621 37,000  Level FlightAware ADS-B
Tue 07:00:07 PM 37.7690 6.3320 171° South 540 621 37,000  Level FlightAware ADS-B
Tue 07:00:47 PM 37.6850 6.3490 171° South 540 621 37,000  Level FlightAware ADS-B
Tue 07:01:27 PM 37.6010 6.3660 171° South 540 621 37,000  Level FlightAware ADS-B
Tue 07:02:07 PM 37.5180 6.3820 171° South 540 621 37,000  Level FlightAware ADS-B
Tue 07:02:47 PM 37.4340 6.3990 171° South 540 621 37,000  Level FlightAware ADS-B
Tue 07:03:37 PM 37.3290 6.4200 171° South 540 621 37,000  Level FlightAware ADS-B
Tue 07:04:17 PM 37.2450 6.4370 171° South 540 621 37,000  Level FlightAware ADS-B
Tue 07:04:57 PM 37.1610 6.4530 171° South 540 621 37,000  Level FlightAware ADS-B
Tue 07:05:37 PM 37.0770 6.4700 171° South 540 621 37,000  Level FlightAware ADS-B
Tue 07:06:17 PM 36.9930 6.4870 171° South 540 621 37,000 Level FlightAware ADS-B
Tue 07:08:00 PM 36.7909 6.5854 159° South  Level Estimated
Tue 07:09:00 PM 36.6731 6.6424 159° South  Level Estimated
Tue 07:10:00 PM 36.5554 6.6993 159° South  Level Estimated
Tue 07:11:00 PM 36.4375 6.7560 159° South  Level Estimated
Tue 07:12:00 PM 36.3197 6.8126 159° South  Level Estimated
Tue 07:13:00 PM 36.2018 6.8689 159° South  Level Estimated
Tue 07:14:00 PM 36.0839 6.9251 159° South  Level Estimated
Tue 07:15:00 PM 35.9660 6.9812 159° South  Level Estimated
Tue 07:16:00 PM 35.8481 7.0371 159° South  Level Estimated
Tue 07:17:00 PM 35.7301 7.0928 159° South  Level Estimated
Tue 07:18:00 PM 35.6121 7.1483 159° South  Level Estimated
Tue 07:19:00 PM 35.4941 7.2037 159° South  Level Estimated
Tue 07:20:00 PM 35.3760 7.2589 159° South  Level Estimated
Tue 07:21:00 PM 35.2579 7.3139 159° South  Level Estimated
Tue 07:22:00 PM 35.1399 7.3688 159° South  Level Estimated
Tue 07:23:00 PM 35.0217 7.4236 159° South  Level Estimated
Tue 07:24:00 PM 34.9005 7.4796 159° South  Level Estimated
Tue 07:25:00 PM 34.7792 7.5354 159° South  Level Estimated
Tue 07:26:00 PM 34.6578 7.5911 159° South  Level Estimated
Tue 07:27:00 PM 34.5365 7.6466 159° South  Level Estimated
Tue 07:28:00 PM 34.4151 7.7020 159° South  Level Estimated
Tue 07:29:00 PM 34.2938 7.7572 159° South  Level Estimated
Tue 07:30:00 PM 34.1723 7.8122 159° South  Level Estimated
Tue 07:31:00 PM 34.0509 7.8671 159° South  Level Estimated
Tue 07:32:00 PM 33.9294 7.9218 160° South  Level Estimated
Tue 07:33:00 PM 33.8079 7.9764 160° South  Level Estimated
Tue 07:34:00 PM 33.6864 8.0308 160° South  Level Estimated
Tue 07:35:00 PM 33.5649 8.0850 160° South  Level Estimated
Tue 07:36:00 PM 33.4433 8.1392 160° South  Level Estimated
Tue 07:37:00 PM 33.3217 8.1931 160° South  Level Estimated
Tue 07:38:00 PM 33.2001 8.2469 160° South  Level Estimated
Tue 07:39:00 PM 33.0785 8.3006 160° South  Level Estimated
Tue 07:40:00 PM 32.9568 8.3541 160° South  Level Estimated
Tue 07:41:00 PM 32.8351 8.4074 160° South  Level Estimated
Tue 07:42:00 PM 32.7134 8.4607 160° South  Level Estimated
Tue 07:43:00 PM 32.5917 8.5137 160° South  Level Estimated
Tue 07:44:00 PM 32.4700 8.5666 160° South  Level Estimated
Tue 07:45:00 PM 32.3482 8.6194 160° South  Level Estimated
Tue 07:46:00 PM 32.2264 8.6721 160° South  Level Estimated
Tue 07:47:00 PM 32.1046 8.7246 160° South  Level Estimated
Tue 07:48:00 PM 31.9828 8.7769 160° South  Level Estimated
Tue 07:49:00 PM 31.8609 8.8291 160° South  Level Estimated
Tue 07:50:00 PM 31.7390 8.8812 160° South  Level Estimated
Tue 07:51:00 PM 31.6171 8.9332 160° South  Level Estimated
Tue 07:52:00 PM 31.4952 8.9850 160° South  Level Estimated
Tue 07:53:00 PM 31.3733 9.0366 160° South  Level Estimated
Tue 07:54:00 PM 31.2513 9.0882 160° South  Level Estimated
Tue 07:55:00 PM 31.1293 9.1396 160° South  Level Estimated
Tue 07:56:00 PM 31.0073 9.1909 160° South  Level Estimated
Tue 07:57:00 PM 30.8853 9.2420 160° South  Level Estimated
Tue 07:58:00 PM 30.7633 9.2930 160° South  Level Estimated
Tue 07:59:00 PM 30.6412 9.3439 160° South  Level Estimated
Tue 08:00:00 PM 30.5191 9.3947 160° South  Level Estimated
Tue 08:01:00 PM 30.3970 9.4453 160° South  Level Estimated
Tue 08:02:00 PM 30.2749 9.4958 160° South  Level Estimated
Tue 08:03:00 PM 30.1528 9.5462 160° South  Level Estimated
Tue 08:04:00 PM 30.0306 9.5964 160° South  Level Estimated
Tue 08:05:00 PM 29.9084 9.6466 160° South  Level Estimated
Tue 08:06:00 PM 29.7862 9.6966 160° South  Level Estimated
Tue 08:07:00 PM 29.6640 9.7465 160° South  Level Estimated
Tue 08:08:00 PM 29.5418 9.7962 160° South  Level Estimated
Tue 08:09:00 PM 29.4195 9.8459 161° South  Level Estimated
Tue 08:10:00 PM 29.2973 9.8954 161° South  Level Estimated
Tue 08:11:00 PM 29.1750 9.9448 161° South  Level Estimated
Tue 08:12:00 PM 29.0527 9.9941 161° South  Level Estimated
Tue 08:13:00 PM 28.9303 10.0433 161° South  Level Estimated
Tue 08:14:00 PM 28.8080 10.0923 161° South  Level Estimated
Tue 08:15:00 PM 28.6856 10.1412 161° South  Level Estimated
Tue 08:16:00 PM 28.5633 10.1901 161° South  Level Estimated
Tue 08:17:00 PM 28.4409 10.2388 161° South  Level Estimated
Tue 08:18:00 PM 28.3185 10.2874 161° South  Level Estimated
Tue 08:19:00 PM 28.1960 10.3359 161° South  Level Estimated
Tue 08:20:00 PM 28.0736 10.3843 161° South  Level Estimated
Tue 08:21:00 PM 27.9511 10.4325 161° South  Level Estimated
Tue 08:22:00 PM 27.8286 10.4807 161° South  Level Estimated
Tue 08:23:00 PM 27.7061 10.5287 161° South  Level Estimated
Tue 08:24:00 PM 27.5836 10.5767 161° South  Level Estimated
Tue 08:25:00 PM 27.4611 10.6245 161° South  Level Estimated
Tue 08:26:00 PM 27.3385 10.6722 161° South  Level Estimated
Tue 08:27:00 PM 27.2160 10.7199 161° South  Level Estimated
Tue 08:28:00 PM 27.0934 10.7674 161° South  Level Estimated
Tue 08:29:00 PM 26.9708 10.8148 161° South  Level Estimated
Tue 08:30:00 PM 26.8482 10.8621 161° South  Level Estimated
Tue 08:31:00 PM 26.7256 10.9093 161° South  Level Estimated
Tue 08:32:00 PM 26.6029 10.9564 161° South  Level Estimated
Tue 08:33:00 PM 26.4803 11.0034 161° South  Level Estimated
Tue 08:34:00 PM 26.3576 11.0503 161° South  Level Estimated
Tue 08:35:00 PM 26.2349 11.0971 161° South  Level Estimated
Tue 08:36:00 PM 26.1122 11.1439 161° South  Level Estimated
Tue 08:37:00 PM 25.9895 11.1905 161° South  Level Estimated
Tue 08:38:00 PM 25.8668 11.2370 161° South  Level Estimated
Tue 08:39:00 PM 25.7440 11.2834 161° South  Level Estimated
Tue 08:40:00 PM 25.6213 11.3297 161° South  Level Estimated
Tue 08:41:00 PM 25.4985 11.3759 161° South  Level Estimated
Tue 08:42:00 PM 25.3757 11.4221 161° South  Level Estimated
Tue 08:43:00 PM 25.2529 11.4681 161° South  Level Estimated
Tue 08:44:00 PM 25.1301 11.5141 161° South  Level Estimated
Tue 08:45:00 PM 25.0072 11.5599 161° South  Level Estimated
Tue 08:46:00 PM 24.8844 11.6057 161° South  Level Estimated
Tue 08:47:00 PM 24.7615 11.6513 161° South  Level Estimated
Tue 08:48:00 PM 24.6386 11.6969 161° South  Level Estimated
Tue 08:49:00 PM 24.5157 11.7424 161° South  Level Estimated
Tue 08:50:00 PM 24.3928 11.7878 161° South  Level Estimated
Tue 08:51:00 PM 24.2699 11.8331 161° South  Level Estimated
Tue 08:52:00 PM 24.1470 11.8783 161° South  Level Estimated
Tue 08:53:00 PM 24.0240 11.9235 161° South  Level Estimated
Tue 08:54:00 PM 23.9011 11.9685 161° South  Level Estimated
Tue 08:55:00 PM 23.7781 12.0135 161° South  Level Estimated
Tue 08:56:00 PM 23.6551 12.0584 162° South  Level Estimated
Tue 08:57:00 PM 23.5321 12.1032 162° South  Level Estimated
Tue 08:58:00 PM 23.4091 12.1479 162° South  Level Estimated
Tue 08:59:00 PM 23.2861 12.1925 162° South  Level Estimated
Tue 09:00:00 PM 23.1631 12.2371 162° South  Level Estimated
Tue 09:01:00 PM 23.0400 12.2815 162° South  Level Estimated
Tue 09:02:00 PM 22.9170 12.3259 162° South  Level Estimated
Tue 09:03:00 PM 22.7939 12.3702 162° South  Level Estimated
Tue 09:04:00 PM 22.6708 12.4144 162° South  Level Estimated
Tue 09:05:00 PM 22.5477 12.4586 162° South  Level Estimated
Tue 09:06:00 PM 22.4246 12.5027 162° South  Level Estimated
Tue 09:07:00 PM 22.3015 12.5466 162° South  Level Estimated
Tue 09:08:00 PM 22.1784 12.5906 162° South  Level Estimated
Tue 09:09:00 PM 22.0552 12.6344 162° South  Level Estimated
Tue 09:10:00 PM 21.9321 12.6781 162° South  Level Estimated
Tue 09:11:00 PM 21.8089 12.7218 162° South  Level Estimated
Tue 09:12:00 PM 21.6857 12.7654 162° South  Level Estimated
Tue 09:13:00 PM 21.5625 12.8090 162° South  Level Estimated
Tue 09:14:00 PM 21.4393 12.8524 162° South  Level Estimated
Tue 09:15:00 PM 21.3161 12.8958 162° South  Level Estimated
Tue 09:16:00 PM 21.1929 12.9391 162° South  Level Estimated
Tue 09:17:00 PM 21.0697 12.9824 162° South  Level Estimated
Tue 09:18:00 PM 20.9464 13.0255 162° South  Level Estimated
Tue 09:19:00 PM 20.8232 13.0686 162° South  Level Estimated
Tue 09:20:00 PM 20.6999 13.1117 162° South  Level Estimated
Tue 09:21:00 PM 20.5766 13.1546 162° South  Level Estimated
Tue 09:22:00 PM 20.4533 13.1975 162° South  Level Estimated
Tue 09:23:00 PM 20.3300 13.2403 162° South  Level Estimated
Tue 09:24:00 PM 20.2067 13.2831 162° South  Level Estimated
Tue 09:25:00 PM 20.0834 13.3258 162° South  Level Estimated
Tue 09:26:00 PM 19.9601 13.3684 162° South  Level Estimated
Tue 09:27:00 PM 19.8367 13.4109 162° South  Level Estimated
Tue 09:28:00 PM 19.7134 13.4534 162° South  Level Estimated
Tue 09:29:00 PM 19.5900 13.4958 162° South  Level Estimated
Tue 09:30:00 PM 19.4667 13.5382 162° South  Level Estimated
Tue 09:31:00 PM 19.3433 13.5805 162° South  Level Estimated
Tue 09:32:00 PM 19.2199 13.6227 162° South  Level Estimated
Tue 09:33:00 PM 19.0965 13.6648 162° South  Level Estimated
Tue 09:34:00 PM 18.9731 13.7069 162° South  Level Estimated
Tue 09:35:00 PM 18.8496 13.7490 162° South  Level Estimated
Tue 09:36:00 PM 18.7262 13.7909 162° South  Level Estimated
Tue 09:37:00 PM 18.6028 13.8329 162° South  Level Estimated
Tue 09:38:00 PM 18.4793 13.8747 162° South  Level Estimated
Tue 09:39:00 PM 18.3559 13.9165 162° South  Level Estimated
Tue 09:40:00 PM 18.2324 13.9582 162° South  Level Estimated
Tue 09:41:00 PM 18.1089 13.9999 162° South  Level Estimated
Tue 09:42:00 PM 17.9855 14.0415 162° South  Level Estimated
Tue 09:43:00 PM 17.8620 14.0831 162° South  Level Estimated
Tue 09:44:00 PM 17.7385 14.1246 162° South  Level Estimated
Tue 09:45:00 PM 17.6150 14.1660 162° South  Level Estimated
Tue 09:46:00 PM 17.4914 14.2074 162° South  Level Estimated
Tue 09:47:00 PM 17.3679 14.2487 162° South  Level Estimated
Tue 09:48:00 PM 17.2444 14.2900 162° South  Level Estimated
Tue 09:49:00 PM 17.1208 14.3312 162° South  Level Estimated
Tue 09:50:00 PM 16.9973 14.3724 162° South  Level Estimated
Tue 09:51:00 PM 16.8737 14.4135 162° South  Level Estimated
Tue 09:52:00 PM 16.7502 14.4545 162° South  Level Estimated
Tue 09:53:00 PM 16.6266 14.4955 162° South  Level Estimated
Tue 09:54:00 PM 16.5030 14.5365 162° South  Level Estimated
Tue 09:55:00 PM 16.3794 14.5774 162° South  Level Estimated
Tue 09:56:00 PM 16.2558 14.6182 162° South  Level Estimated
Tue 09:57:00 PM 16.1322 14.6590 162° South  Level Estimated
Tue 09:58:00 PM 16.0086 14.6997 162° South  Level Estimated
Tue 09:59:00 PM 15.8850 14.7404 162° South  Level Estimated
Tue 10:00:00 PM 15.7614 14.7811 162° South  Level Estimated
Tue 10:01:00 PM 15.6377 14.8217 162° South  Level Estimated
Tue 10:02:00 PM 15.5141 14.8622 162° South  Level Estimated
Tue 10:03:00 PM 15.3904 14.9027 162° South  Level Estimated
Tue 10:04:00 PM 15.2668 14.9431 162° South  Level Estimated
Tue 10:05:00 PM 15.1431 14.9836 162° South  Level Estimated
Tue 10:06:00 PM 15.0194 15.0239 163° South  Level Estimated
Tue 10:07:00 PM 14.8958 15.0642 163° South  Level Estimated
Tue 10:08:00 PM 14.7721 15.1045 163° South  Level Estimated
Tue 10:09:00 PM 14.6484 15.1447 163° South  Level Estimated
Tue 10:10:00 PM 14.5247 15.1848 163° South  Level Estimated
Tue 10:11:00 PM 14.4010 15.2250 163° South  Level Estimated
Tue 10:12:00 PM 14.2772 15.2650 163° South  Level Estimated
Tue 10:13:00 PM 14.1535 15.3051 163° South  Level Estimated
Tue 10:14:00 PM 14.0298 15.3451 163° South  Level Estimated
Tue 10:15:00 PM 13.9060 15.3850 163° South  Level Estimated
Tue 10:16:00 PM 13.7823 15.4249 163° South  Level Estimated
Tue 10:17:00 PM 13.6586 15.4648 163° South  Level Estimated
Tue 10:18:00 PM 13.5348 15.5046 163° South  Level Estimated
Tue 10:19:00 PM 13.4110 15.5444 163° South  Level Estimated
Tue 10:20:00 PM 13.2873 15.5841 163° South  Level Estimated
Tue 10:21:00 PM 13.1635 15.6238 163° South  Level Estimated
Tue 10:22:00 PM 13.0397 15.6635 163° South  Level Estimated
Tue 10:23:00 PM 12.9159 15.7031 163° South  Level Estimated
Tue 10:24:00 PM 12.7921 15.7427 163° South  Level Estimated
Tue 10:25:00 PM 12.6684 15.7822 163° South  Level Estimated
Tue 10:26:00 PM 12.5445 15.8217 163° South  Level Estimated
Tue 10:27:00 PM 12.4207 15.8612 163° South  Level Estimated
Tue 10:28:00 PM 12.2969 15.9006 163° South  Level Estimated
Tue 10:29:00 PM 12.1731 15.9400 163° South  Level Estimated
Tue 10:30:00 PM 12.0493 15.9794 163° South  Level Estimated
Tue 10:31:00 PM 11.9255 16.0187 163° South  Level Estimated
Tue 10:32:00 PM 11.8016 16.0580 163° South  Level Estimated
Tue 10:33:00 PM 11.6778 16.0972 163° South  Level Estimated
Tue 10:34:00 PM 11.5539 16.1364 163° South  Level Estimated
Tue 10:35:00 PM 11.4301 16.1756 163° South  Level Estimated
Tue 10:36:00 PM 11.3062 16.2147 163° South  Level Estimated
Tue 10:37:00 PM 11.1824 16.2538 163° South  Level Estimated
Tue 10:38:00 PM 11.0585 16.2929 163° South  Level Estimated
Tue 10:39:00 PM 10.9346 16.3319 163° South  Level Estimated
Tue 10:40:00 PM 10.8107 16.3710 163° South  Level Estimated
Tue 10:41:00 PM 10.6868 16.4099 163° South  Level Estimated
Tue 10:42:00 PM 10.5630 16.4489 163° South  Level Estimated
Tue 10:43:00 PM 10.4391 16.4878 163° South  Level Estimated
Tue 10:44:00 PM 10.3152 16.5267 163° South  Level Estimated
Tue 10:45:00 PM 10.1913 16.5655 163° South  Level Estimated
Tue 10:46:00 PM 10.0674 16.6043 163° South  Level Estimated
Tue 10:47:00 PM 9.9434 16.6431 163° South  Level Estimated
Tue 10:48:00 PM 9.8195 16.6819 163° South  Level Estimated
Tue 10:49:00 PM 9.6956 16.7206 163° South  Level Estimated
Tue 10:50:00 PM 9.5717 16.7593 163° South  Level Estimated
Tue 10:51:00 PM 9.4478 16.7980 163° South  Level Estimated
Tue 10:52:00 PM 9.3238 16.8367 163° South  Level Estimated
Tue 10:53:00 PM 9.1999 16.8753 163° South  Level Estimated
Tue 10:54:00 PM 9.0759 16.9139 163° South  Level Estimated
Tue 10:55:00 PM 8.9520 16.9524 163° South  Level Estimated
Tue 10:56:00 PM 8.8281 16.9910 163° South  Level Estimated
Tue 10:57:00 PM 8.7041 17.0295 163° South  Level Estimated
Tue 10:58:00 PM 8.5801 17.0680 163° South  Level Estimated
Tue 10:59:00 PM 8.4562 17.1064 163° South  Level Estimated
Tue 11:00:00 PM 8.3322 17.1449 163° South  Level Estimated
Tue 11:01:00 PM 8.2083 17.1833 163° South  Level Estimated
Tue 11:02:00 PM 8.0843 17.2217 163° South  Level Estimated
Tue 11:03:00 PM 7.9603 17.2600 163° South  Level Estimated
Tue 11:04:00 PM 7.8363 17.2984 163° South  Level Estimated
Tue 11:05:00 PM 7.7123 17.3367 163° South  Level Estimated
Tue 11:06:00 PM 7.5884 17.3750 163° South  Level Estimated
Tue 11:07:00 PM 7.4644 17.4133 163° South  Level Estimated
Tue 11:08:00 PM 7.3404 17.4515 163° South  Level Estimated
Tue 11:09:00 PM 7.2164 17.4898 163° South  Level Estimated
Tue 11:10:00 PM 7.0924 17.5280 163° South  Level Estimated
Tue 11:11:00 PM 6.9684 17.5662 163° South  Level Estimated
Tue 11:12:00 PM 6.8444 17.6043 163° South  Level Estimated
Tue 11:13:00 PM 6.7204 17.6425 163° South  Level Estimated
Tue 11:14:00 PM 6.5964 17.6806 163° South  Level Estimated
Tue 11:15:00 PM 6.4724 17.7187 163° South  Level Estimated
Tue 11:16:00 PM 6.3483 17.7568 163° South  Level Estimated
Tue 11:17:00 PM 6.2243 17.7949 163° South  Level Estimated
Tue 11:18:00 PM 6.1003 17.8330 163° South  Level Estimated
Tue 11:19:00 PM 5.9763 17.8710 163° South  Level Estimated
Tue 11:20:00 PM 5.8522 17.9090 163° South  Level Estimated
Tue 11:21:00 PM 5.7282 17.9471 163° South  Level Estimated
Tue 11:22:00 PM 5.6042 17.9850 163° South  Level Estimated
Tue 11:23:00 PM 5.4802 18.0230 163° South  Level Estimated
Tue 11:24:00 PM 5.3561 18.0610 163° South  Level Estimated
Tue 11:25:00 PM 5.2321 18.0989 163° South  Level Estimated
Tue 11:26:00 PM 5.1080 18.1368 163° South  Level Estimated
Tue 11:27:00 PM 4.9840 18.1747 163° South  Level Estimated
Tue 11:28:00 PM 4.8599 18.2127 163° South  Level Estimated
Tue 11:29:00 PM 4.7359 18.2505 163° South  Level Estimated
Tue 11:30:00 PM 4.6118 18.2884 163° South  Level Estimated
Tue 11:31:00 PM 4.4878 18.3263 163° South  Level Estimated
Tue 11:32:00 PM 4.3637 18.3641 163° South  Level Estimated
Tue 11:33:00 PM 4.2397 18.4020 163° South  Level Estimated
Tue 11:34:00 PM 4.1156 18.4398 163° South  Level Estimated
Tue 11:35:00 PM 3.9916 18.4776 163° South  Level Estimated
Tue 11:36:00 PM 3.8675 18.5154 163° South  Level Estimated
Tue 11:37:00 PM 3.7434 18.5532 163° South  Level Estimated
Tue 11:38:00 PM 3.6194 18.5910 163° South  Level Estimated
Tue 11:39:00 PM 3.4953 18.6287 163° South  Level Estimated
Tue 11:40:00 PM 3.3712 18.6665 163° South  Level Estimated
Tue 11:41:00 PM 3.2472 18.7042 163° South  Level Estimated
Tue 11:42:00 PM 3.1231 18.7420 163° South  Level Estimated
Tue 11:43:00 PM 2.9990 18.7797 163° South  Level Estimated
Tue 11:44:00 PM 2.8750 18.8174 163° South  Level Estimated
Tue 11:45:00 PM 2.7509 18.8551 163° South  Level Estimated
Tue 11:46:00 PM 2.6268 18.8928 163° South  Level Estimated
Tue 11:47:00 PM 2.5027 18.9305 163° South  Level Estimated
Tue 11:48:00 PM 2.3786 18.9682 163° South  Level Estimated
Tue 11:49:00 PM 2.2546 19.0059 163° South  Level Estimated
Tue 11:50:00 PM 2.1305 19.0436 163° South  Level Estimated
Tue 11:51:00 PM 2.0064 19.0812 163° South  Level Estimated
Tue 11:52:00 PM 1.8823 19.1189 163° South  Level Estimated
Tue 11:53:00 PM 1.7582 19.1566 163° South  Level Estimated
Tue 11:54:00 PM 1.6342 19.1942 163° South  Level Estimated
Tue 11:55:00 PM 1.5101 19.2319 163° South  Level Estimated
Tue 11:56:00 PM 1.3860 19.2695 163° South  Level Estimated
Tue 11:57:00 PM 1.2619 19.3071 163° South  Level Estimated
Tue 11:58:00 PM 1.1378 19.3448 163° South  Level Estimated
Tue 11:59:00 PM 1.0137 19.3824 163° South  Level Estimated
Wed 12:00:00 AM 0.8896 19.4200 163° South  Level Estimated
Wed 12:01:00 AM 0.7656 19.4577 163° South  Level Estimated
Wed 12:02:00 AM 0.6415 19.4953 163° South  Level Estimated
Wed 12:03:00 AM 0.5174 19.5329 163° South  Level Estimated
Wed 12:04:00 AM 0.3933 19.5706 163° South  Level Estimated
Wed 12:05:00 AM 0.2692 19.6082 163° South  Level Estimated
Wed 12:06:00 AM 0.1451 19.6458 163° South  Level Estimated
Wed 12:07:00 AM 0.0210 19.6834 163° South  Level Estimated
Wed 12:08:00 AM -0.1031 19.7210 163° South  Level Estimated
Wed 12:09:00 AM -0.2272 19.7586 163° South  Level Estimated
Wed 12:10:00 AM -0.3512 19.7963 163° South  Level Estimated
Wed 12:11:00 AM -0.4753 19.8339 163° South  Level Estimated
Wed 12:12:00 AM -0.5994 19.8715 163° South  Level Estimated
Wed 12:13:00 AM -0.7235 19.9091 163° South  Level Estimated
Wed 12:14:00 AM -0.8476 19.9468 163° South  Level Estimated
Wed 12:15:00 AM -0.9717 19.9844 163° South  Level Estimated
Wed 12:16:00 AM -1.0958 20.0220 163° South  Level Estimated
Wed 12:17:00 AM -1.2199 20.0597 163° South  Level Estimated
Wed 12:18:00 AM -1.3440 20.0973 163° South  Level Estimated
Wed 12:19:00 AM -1.4681 20.1350 163° South  Level Estimated
Wed 12:20:00 AM -1.5921 20.1726 163° South  Level Estimated
Wed 12:21:00 AM -1.7162 20.2103 163° South  Level Estimated
Wed 12:22:00 AM -1.8403 20.2479 163° South  Level Estimated
Wed 12:23:00 AM -1.9644 20.2856 163° South  Level Estimated
Wed 12:24:00 AM -2.0885 20.3232 163° South  Level Estimated
Wed 12:25:00 AM -2.2125 20.3609 163° South  Level Estimated
Wed 12:26:00 AM -2.3366 20.3986 163° South  Level Estimated
Wed 12:27:00 AM -2.4607 20.4363 163° South  Level Estimated
Wed 12:28:00 AM -2.5848 20.4740 163° South  Level Estimated
Wed 12:29:00 AM -2.7089 20.5117 163° South  Level Estimated
Wed 12:30:00 AM -2.8329 20.5494 163° South  Level Estimated
Wed 12:31:00 AM -2.9570 20.5871 163° South  Level Estimated
Wed 12:32:00 AM -3.0811 20.6248 163° South  Level Estimated
Wed 12:33:00 AM -3.2051 20.6625 163° South  Level Estimated
Wed 12:34:00 AM -3.3292 20.7003 163° South  Level Estimated
Wed 12:35:00 AM -3.4533 20.7380 163° South  Level Estimated
Wed 12:36:00 AM -3.5774 20.7758 163° South  Level Estimated
Wed 12:37:00 AM -3.7014 20.8136 163° South  Level Estimated
Wed 12:38:00 AM -3.8255 20.8514 163° South  Level Estimated
Wed 12:39:00 AM -3.9495 20.8891 163° South  Level Estimated
Wed 12:40:00 AM -4.0736 20.9270 163° South  Level Estimated
Wed 12:41:00 AM -4.1977 20.9648 163° South  Level Estimated
Wed 12:42:00 AM -4.3217 21.0026 163° South  Level Estimated
Wed 12:43:00 AM -4.4458 21.0404 163° South  Level Estimated
Wed 12:44:00 AM -4.5698 21.0783 163° South  Level Estimated
Wed 12:45:00 AM -4.6939 21.1162 163° South  Level Estimated
Wed 12:46:00 AM -4.8179 21.1540 163° South  Level Estimated
Wed 12:47:00 AM -4.9420 21.1919 163° South  Level Estimated
Wed 12:48:00 AM -5.0660 21.2298 163° South  Level Estimated
Wed 12:49:00 AM -5.1901 21.2678 163° South  Level Estimated
Wed 12:50:00 AM -5.3141 21.3057 163° South  Level Estimated
Wed 12:51:00 AM -5.4381 21.3437 163° South  Level Estimated
Wed 12:52:00 AM -5.5622 21.3816 163° South  Level Estimated
Wed 12:53:00 AM -5.6862 21.4196 163° South  Level Estimated
Wed 12:54:00 AM -5.8102 21.4576 163° South  Level Estimated
Wed 12:55:00 AM -5.9343 21.4956 163° South  Level Estimated
Wed 12:56:00 AM -6.0583 21.5337 163° South  Level Estimated
Wed 12:57:00 AM -6.1823 21.5717 163° South  Level Estimated
Wed 12:58:00 AM -6.3063 21.6098 163° South  Level Estimated
Wed 12:59:00 AM -6.4304 21.6479 163° South  Level Estimated
Wed 01:00:00 AM -6.5544 21.6860 163° South  Level Estimated
Wed 01:01:00 AM -6.6784 21.7241 163° South  Level Estimated
Wed 01:02:00 AM -6.8024 21.7623 163° South  Level Estimated
Wed 01:03:00 AM -6.9264 21.8004 163° South  Level Estimated
Wed 01:04:00 AM -7.0504 21.8386 163° South  Level Estimated
Wed 01:05:00 AM -7.1744 21.8768 163° South  Level Estimated
Wed 01:06:00 AM -7.2984 21.9151 163° South  Level Estimated
Wed 01:07:00 AM -7.4224 21.9533 163° South  Level Estimated
Wed 01:08:00 AM -7.5464 21.9916 163° South  Level Estimated
Wed 01:09:00 AM -7.6704 22.0299 163° South  Level Estimated
Wed 01:10:00 AM -7.7944 22.0682 163° South  Level Estimated
Wed 01:11:00 AM -7.9183 22.1065 163° South  Level Estimated
Wed 01:12:00 AM -8.0423 22.1449 163° South  Level Estimated
Wed 01:13:00 AM -8.1663 22.1833 163° South  Level Estimated
Wed 01:14:00 AM -8.2902 22.2217 163° South  Level Estimated
Wed 01:15:00 AM -8.4142 22.2601 163° South  Level Estimated
Wed 01:16:00 AM -8.5382 22.2986 163° South  Level Estimated
Wed 01:17:00 AM -8.6621 22.3370 163° South  Level Estimated
Wed 01:18:00 AM -8.7861 22.3756 163° South  Level Estimated
Wed 01:19:00 AM -8.9100 22.4141 163° South  Level Estimated
Wed 01:20:00 AM -9.0340 22.4527 163° South  Level Estimated
Wed 01:21:00 AM -9.1579 22.4912 163° South  Level Estimated
Wed 01:22:00 AM -9.2819 22.5298 163° South  Level Estimated
Wed 01:23:00 AM -9.4058 22.5685 163° South  Level Estimated
Wed 01:24:00 AM -9.5295 22.6071 163° South  Level Estimated
Wed 01:25:00 AM -9.6532 22.6457 163° South  Level Estimated
Wed 01:26:00 AM -9.7770 22.6844 163° South  Level Estimated
Wed 01:27:00 AM -9.9007 22.7231 163° South  Level Estimated
Wed 01:28:00 AM -10.0244 22.7618 163° South  Level Estimated
Wed 01:29:00 AM -10.1481 22.8005 163° South  Level Estimated
Wed 01:30:00 AM -10.2718 22.8393 163° South  Level Estimated
Wed 01:31:00 AM -10.3955 22.8781 163° South  Level Estimated
Wed 01:32:00 AM -10.5192 22.9170 163° South  Level Estimated
Wed 01:33:00 AM -10.6429 22.9558 163° South  Level Estimated
Wed 01:34:00 AM -10.7665 22.9947 163° South  Level Estimated
Wed 01:35:00 AM -10.8902 23.0337 163° South  Level Estimated
Wed 01:36:00 AM -11.0139 23.0726 163° South  Level Estimated
Wed 01:37:00 AM -11.1376 23.1116 163° South  Level Estimated
Wed 01:38:00 AM -11.2612 23.1507 163° South  Level Estimated
Wed 01:39:00 AM -11.3849 23.1897 163° South  Level Estimated
Wed 01:40:00 AM -11.5085 23.2288 163° South  Level Estimated
Wed 01:41:00 AM -11.6322 23.2679 163° South  Level Estimated
Wed 01:42:00 AM -11.7558 23.3071 163° South  Level Estimated
Wed 01:43:00 AM -11.8794 23.3463 163° South  Level Estimated
Wed 01:44:00 AM -12.0031 23.3855 163° South  Level Estimated
Wed 01:45:00 AM -12.1267 23.4248 163° South  Level Estimated
Wed 01:46:00 AM -12.2503 23.4641 163° South  Level Estimated
Wed 01:47:00 AM -12.3739 23.5035 163° South  Level Estimated
Wed 01:48:00 AM -12.4975 23.5429 163° South  Level Estimated
Wed 01:49:00 AM -12.6211 23.5823 163° South  Level Estimated
Wed 01:50:00 AM -12.7447 23.6217 163° South  Level Estimated
Wed 01:51:00 AM -12.8683 23.6612 163° South  Level Estimated
Wed 01:52:00 AM -12.9919 23.7008 163° South  Level Estimated
Wed 01:53:00 AM -13.1155 23.7404 163° South  Level Estimated
Wed 01:54:00 AM -13.2391 23.7800 163° South  Level Estimated
Wed 01:55:00 AM -13.3626 23.8196 163° South  Level Estimated
Wed 01:56:00 AM -13.4862 23.8593 163° South  Level Estimated
Wed 01:57:00 AM -13.6097 23.8991 163° South  Level Estimated
Wed 01:58:00 AM -13.7333 23.9389 163° South  Level Estimated
Wed 01:59:00 AM -13.8568 23.9787 163° South  Level Estimated
Wed 02:00:00 AM -13.9804 24.0185 163° South  Level Estimated
Wed 02:01:00 AM -14.1039 24.0585 163° South  Level Estimated
Wed 02:02:00 AM -14.2274 24.0984 163° South  Level Estimated
Wed 02:03:00 AM -14.3509 24.1384 163° South  Level Estimated
Wed 02:04:00 AM -14.4744 24.1784 163° South  Level Estimated
Wed 02:05:00 AM -14.5979 24.2185 163° South  Level Estimated
Wed 02:06:00 AM -14.7214 24.2586 163° South  Level Estimated
Wed 02:07:00 AM -14.8449 24.2988 163° South  Level Estimated
Wed 02:08:00 AM -14.9684 24.3390 163° South  Level Estimated
Wed 02:09:00 AM -15.0919 24.3793 163° South  Level Estimated
Wed 02:10:00 AM -15.2153 24.4196 163° South  Level Estimated
Wed 02:11:00 AM -15.3388 24.4600 163° South  Level Estimated
Wed 02:12:00 AM -15.4622 24.5004 162° South  Level Estimated
Wed 02:13:00 AM -15.5857 24.5408 162° South  Level Estimated
Wed 02:14:00 AM -15.7091 24.5813 162° South  Level Estimated
Wed 02:15:00 AM -15.8326 24.6219 162° South  Level Estimated
Wed 02:16:00 AM -15.9560 24.6625 162° South  Level Estimated
Wed 02:17:00 AM -16.0794 24.7031 162° South  Level Estimated
Wed 02:18:00 AM -16.2028 24.7438 162° South  Level Estimated
Wed 02:19:00 AM -16.3262 24.7846 162° South  Level Estimated
Wed 02:20:00 AM -16.4496 24.8254 162° South  Level Estimated
Wed 02:21:00 AM -16.5730 24.8663 162° South  Level Estimated
Wed 02:22:00 AM -16.6963 24.9072 162° South  Level Estimated
Wed 02:23:00 AM -16.8197 24.9481 162° South  Level Estimated
Wed 02:24:00 AM -16.9431 24.9892 162° South  Level Estimated
Wed 02:25:00 AM -17.0664 25.0302 162° South  Level Estimated
Wed 02:26:00 AM -17.1898 25.0714 162° South  Level Estimated
Wed 02:27:00 AM -17.3131 25.1125 162° South  Level Estimated
Wed 02:28:00 AM -17.4364 25.1538 162° South  Level Estimated
Wed 02:29:00 AM -17.5597 25.1951 162° South  Level Estimated
Wed 02:30:00 AM -17.6830 25.2364 162° South  Level Estimated
Wed 02:31:00 AM -17.8063 25.2778 162° South  Level Estimated
Wed 02:32:00 AM -17.9296 25.3193 162° South  Level Estimated
Wed 02:33:00 AM -18.0529 25.3608 162° South  Level Estimated
Wed 02:34:00 AM -18.1762 25.4024 162° South  Level Estimated
Wed 02:35:00 AM -18.2994 25.4440 162° South  Level Estimated
Wed 02:36:00 AM -18.4227 25.4857 162° South  Level Estimated
Wed 02:37:00 AM -18.5459 25.5275 162° South  Level Estimated
Wed 02:38:00 AM -18.6692 25.5693 162° South  Level Estimated
Wed 02:39:00 AM -18.7924 25.6112 162° South  Level Estimated
Wed 02:40:00 AM -18.9156 25.6531 162° South  Level Estimated
Wed 02:41:00 AM -19.0389 25.6951 162° South  Level Estimated
Wed 02:42:00 AM -19.1621 25.7372 162° South  Level Estimated
Wed 02:43:00 AM -19.2852 25.7793 162° South  Level Estimated
Wed 02:44:00 AM -19.4084 25.8215 162° South  Level Estimated
Wed 02:45:00 AM -19.5316 25.8637 162° South  Level Estimated
Wed 02:46:00 AM -19.6548 25.9061 162° South  Level Estimated
Wed 02:47:00 AM -19.7779 25.9484 162° South  Level Estimated
Wed 02:47:22 AM -23.2870 25.1190 162° South 513 590 39,000  Level FlightAware ADS-B
Wed 02:48:00 AM -19.9010 25.9909 162° South  Level Estimated
Wed 02:48:02 AM -23.3750 25.1660 154° Southeast 514 592 39,000  Level FlightAware ADS-B
Wed 02:48:47 AM -23.4670 25.2160 154° Southeast 516 594 39,000  Level FlightAware ADS-B
Wed 02:49:27 AM -23.5530 25.2620 154° Southeast 518 596 39,000  Level FlightAware ADS-B
Wed 02:50:07 AM -23.6400 25.3090 154° Southeast 518 596 39,000  Level FlightAware ADS-B
Wed 02:50:52 AM -23.7380 25.3620 154° Southeast 518 596 39,000  Level FlightAware ADS-B
Wed 02:51:32 AM -23.8250 25.4090 154° Southeast 521 600 39,000  Level FlightAware ADS-B
Wed 02:52:17 AM -23.9190 25.4610 153° Southeast 521 600 39,000  Level FlightAware ADS-B
Wed 02:53:27 AM -24.0720 25.5440 154° Southeast 522 601 39,000  Level FlightAware ADS-B
Wed 02:54:07 AM -24.1580 25.5910 153° Southeast 523 602 39,000  Level FlightAware ADS-B
Wed 02:54:47 AM -24.2450 25.6390 153° Southeast 523 602 39,000 -141 Level FlightAware ADS-B
Wed 02:55:32 AM -24.3450 25.6930 154° Southeast 524 603 38,800 -565 Descending FlightAware ADS-B
Wed 02:56:12 AM -24.4320 25.7420 153° Southeast 522 601 38,200 -1,200 Descending FlightAware ADS-B
Wed 02:56:52 AM -24.5160 25.7960 150° Southeast 537 618 37,200 -847 Descending FlightAware ADS-B
Wed 02:57:37 AM -24.5990 25.8750 139° Southeast 549 632 37,000 -141 Descending FlightAware ADS-B
Wed 02:58:17 AM -24.6580 25.9660 126° Southeast 555 639 37,000 -353 Level FlightAware ADS-B
Wed 02:59:02 AM -24.6810 26.0910 101° East 545 627 36,500 -1,341 Descending FlightAware ADS-B
Wed 02:59:42 AM -24.6950 26.1980 98° East 550 633 35,100 -2,250 Descending FlightAware ADS-B
Wed 03:00:22 AM -24.7120 26.3120 99° East 555 639 33,500 -1,906 Descending FlightAware ADS-B
Wed 03:01:07 AM -24.7630 26.4200 117° Southeast 540 621 32,400 -1,482 Descending FlightAware ADS-B
Wed 03:01:47 AM -24.8340 26.4980 135° Southeast 526 605 31,400 -1,341 Descending FlightAware ADS-B
Wed 03:02:32 AM -24.9100 26.5790 136° Southeast 514 592 30,500 -1,412 Descending FlightAware ADS-B
Wed 03:03:12 AM -24.9800 26.6540 136° Southeast 504 580 29,400 -1,425 Descending FlightAware ADS-B
Wed 03:03:52 AM -25.0460 26.7230 137° Southeast 492 566 28,600 -1,129 Descending FlightAware ADS-B
Wed 03:04:37 AM -25.1190 26.8020 136° Southeast 476 548 27,800 -988 Descending FlightAware ADS-B
Wed 03:05:17 AM -25.1800 26.8660 136° Southeast 460 529 27,200 -1,129 Descending FlightAware ADS-B
Wed 03:06:02 AM -25.2490 26.9400 136° Southeast 450 518 26,200 -1,341 Descending FlightAware ADS-B
Wed 03:06:42 AM -25.3080 27.0030 136° Southeast 440 506 25,300 -1,425 Descending FlightAware ADS-B
Wed 03:07:22 AM -25.3660 27.0650 136° Southeast 435 501 24,300 -1,412 Descending FlightAware ADS-B
Wed 03:08:07 AM -25.4320 27.1360 136° Southeast 425 489 23,300 -1,271 Descending FlightAware ADS-B
Wed 03:08:47 AM -25.4850 27.1930 136° Southeast 415 478 22,500 -1,275 Descending FlightAware ADS-B
Wed 03:09:27 AM -25.5410 27.2520 136° Southeast 410 472 21,600 -1,341 Descending FlightAware ADS-B
Wed 03:10:12 AM -25.6030 27.3180 136° Southeast 400 460 20,600 -1,271 Descending FlightAware ADS-B
Wed 03:10:52 AM -25.6560 27.3760 135° Southeast 392 451 19,800 -918 Descending FlightAware ADS-B
Wed 03:11:37 AM -25.7140 27.4390 136° Southeast 371 427 19,300 -776 Descending FlightAware ADS-B
Wed 03:12:17 AM -25.7510 27.5010 124° Southeast 358 412 18,700 -988 Descending FlightAware ADS-B
Wed 03:13:02 AM -25.7890 27.5690 122° Southeast 351 404 17,900 -1,200 Descending FlightAware ADS-B
Wed 03:13:42 AM -25.8230 27.6290 122° Southeast 348 400 17,000 -1,341 Descending FlightAware ADS-B
Wed 03:14:27 AM -25.8630 27.7000 122° Southeast 345 397 16,000 -1,341 Descending FlightAware ADS-B
Wed 03:15:07 AM -25.8960 27.7600 121° Southeast 343 395 15,100 -1,200 Descending FlightAware ADS-B
Wed 03:15:47 AM -25.9290 27.8190 122° Southeast 337 388 14,400 -1,129 Descending FlightAware ADS-B
Wed 03:16:32 AM -25.9640 27.8830 121° Southeast 333 383 13,500 -1,129 Descending FlightAware ADS-B
Wed 03:17:12 AM -25.9960 27.9400 122° Southeast 322 371 12,800 -706 Descending FlightAware ADS-B
Wed 03:17:57 AM -26.0310 28.0030 122° Southeast 297 342 12,500 -450 Descending FlightAware ADS-B
Wed 03:18:32 AM -26.0490 28.0480 114° Southeast 275 316 12,200 -545 Descending FlightAware ADS-B
Wed 03:18:52 AM -26.0420 28.0740 73° East 259 298 12,000 -900 Descending FlightAware ADS-B
Wed 03:19:32 AM -26.0090 28.1120 46° Northeast 256 295 11,300 -1,050 Descending FlightAware ADS-B
Wed 03:20:12 AM -25.9740 28.1490 44° Northeast 256 295 10,600 -1,200 Descending FlightAware ADS-B
Wed 03:20:57 AM -25.9410 28.1940 51° Northeast 255 293 9,600 -1,400 Descending FlightAware ADS-B
Wed 03:21:12 AM -25.9400 28.2090 86° East 255 293 9,200 -1,600 Descending FlightAware ADS-B
Wed 03:21:42 AM -25.9410 28.2520 91° East 252 290 8,400 -1,200 Descending FlightAware ADS-B
Wed 03:22:07 AM -25.9410 28.2830 90° East 246 283 8,100 -750 Descending FlightAware ADS-B
Wed 03:22:22 AM -25.9450 28.3000 105° East 237 273 7,900 -800 Descending FlightAware ADS-B
Wed 03:22:37 AM -25.9590 28.3110 145° Southeast 222 255 7,700 -400 Descending FlightAware ADS-B
Wed 03:22:52 AM -25.9730 28.3100 184° South 208 239 7,700 -150 Level FlightAware ADS-B
Wed 03:23:17 AM -25.9950 28.3010 200° South 193 222 7,600 -327 Descending FlightAware ADS-B
Wed 03:23:47 AM -26.0200 28.2930 196° South 185 213 7,400 -655 Descending FlightAware ADS-B
Wed 03:24:12 AM -26.0400 28.2870 195° South 174 200 7,000 -873 Descending FlightAware ADS-B
Wed 03:24:42 AM -26.0620 28.2800 196° South 156 180 6,600 -800 Descending FlightAware ADS-B
Wed 03:25:12 AM -26.0830 28.2740 194° South 149 171 6,200 -873 Descending FlightAware ADS-B
Wed 03:25:37 AM -26.1000 28.2680 198° South 149 171 5,800 -800 Descending FlightAware ADS-B
Wed 03:25:57 AM -26.1110 28.2650 194° South 147 169 5,600 -655 Descending FlightAware ADS-B
Wed 03:26:32 AM -26.1330 28.2580 196° South 153 176 5,200 -686 Descending FlightAware ADS-B

Login

Don't have an account? Register now (free) for customized features, flight alerts, and more!